Time;durP1;ratioP1;P1;durP2;ratioP2;P2;SDS_P1;SDS_P2;PMS_P1;PMS_P2;Temp;Humidity;BMP_temperature;BMP_pressure;BME280_temperature;BME280_humidity;BME280_pressure;Samples;Min_cycle;Max_cycle;Signal;HPM_P1;HPM_P2
2022/06/17 00:02:07;;;;;;;0.00;0.00;;;23.30;95.50;;;;;;5033458;28;20580;-85
2022/06/17 00:04:33;;;;;;;0.90;0.20;;;23.30;95.50;;;;;;5037753;28;20017;-85
2022/06/17 00:07:06;;;;;;;0.35;0.20;;;23.20;95.90;;;;;;5032070;28;20946;-86
2022/06/17 00:09:34;;;;;;;0.25;0.20;;;23.20;95.60;;;;;;5035135;28;20037;-85
2022/06/17 00:12:01;;;;;;;0.35;0.30;;;23.20;95.50;;;;;;5034253;28;20029;-85
2022/06/17 00:15:11;;;;;;;0.40;0.40;;;23.20;95.40;;;;;;5017333;28;20878;-84
2022/06/17 00:17:19;;;;;;;0.10;0.03;;;23.30;94.80;;;;;;5034242;28;20032;-84
2022/06/17 00:19:45;;;;;;;0.32;0.30;;;23.20;95.10;;;;;;5029308;28;20033;-85
2022/06/17 00:22:11;;;;;;;3.87;1.40;;;23.10;95.20;;;;;;5011980;28;20037;-85
2022/06/17 00:24:37;;;;;;;2.03;0.50;;;23.10;95.40;;;;;;5029208;28;21381;-85
2022/06/17 00:27:03;;;;;;;0.10;0.10;;;23.10;95.70;;;;;;5033601;28;20038;-84
2022/06/17 00:29:30;;;;;;;0.10;0.10;;;23.10;95.10;;;;;;5033173;28;20822;-85
2022/06/17 00:31:57;;;;;;;0.20;0.20;;;23.10;94.60;;;;;;5033723;28;20048;-83
2022/06/17 00:34:24;;;;;;;0.03;0.03;;;23.10;94.70;;;;;;5033957;28;20032;-83
2022/06/17 00:36:56;;;;;;;0.38;0.38;;;23.00;94.70;;;;;;5034770;28;20562;-83
2022/06/17 00:39:27;;;;;;;0.17;0.17;;;22.90;95.00;;;;;;5023958;28;20044;-83
2022/06/17 00:41:58;;;;;;;0.20;0.20;;;22.90;94.90;;;;;;5031541;28;20040;-83
2022/06/17 00:44:28;;;;;;;1.95;0.88;;;22.90;94.90;;;;;;5029657;28;20052;-85
2022/06/17 00:47:23;;;;;;;0.20;0.20;;;22.90;94.80;;;;;;5003531;28;20025;-85
2022/06/17 00:50:13;;;;;;;1.25;0.82;;;22.80;95.30;;;;;;5031806;28;20084;-83
2022/06/17 00:53:02;;;;;;;0.60;0.60;;;22.80;94.70;;;;;;5037931;28;20036;-86
2022/06/17 00:55:50;;;;;;;0.47;0.47;;;22.90;94.40;;;;;;5033395;28;20041;-86
2022/06/17 00:58:29;;;;;;;4.22;1.13;;;22.80;94.60;;;;;;5036661;28;20059;-87
2022/06/17 01:00:59;;;;;;;0.32;0.32;;;22.70;94.40;;;;;;5038683;28;20044;-87
2022/06/17 01:03:36;;;;;;;1.08;0.28;;;22.70;94.60;;;;;;5041781;28;20041;-87
2022/06/17 01:06:07;;;;;;;0.80;0.80;;;22.70;94.40;;;;;;5032859;28;20124;-86
2022/06/17 01:11:23;;;;;;;3.10;0.85;;;22.60;95.60;;;;;;5019822;28;20325;-86
2022/06/17 01:13:50;;;;;;;0.50;0.47;;;22.40;96.10;;;;;;5033021;28;20029;-86
2022/06/17 01:16:18;;;;;;;0.40;0.40;;;22.40;96.60;;;;;;5032220;28;20787;-84
2022/06/17 01:18:45;;;;;;;0.77;0.77;;;22.40;96.90;;;;;;5033560;28;20069;-84
2022/06/17 01:21:25;;;;;;;1.05;0.95;;;22.30;96.70;;;;;;5034221;28;20037;-84
2022/06/17 01:23:52;;;;;;;0.32;0.30;;;22.30;96.60;;;;;;5032744;28;20120;-84
2022/06/17 01:26:18;;;;;;;0.55;0.47;;;22.30;97.00;;;;;;5008807;28;20036;-84
2022/06/17 01:28:44;;;;;;;0.30;0.30;;;22.20;97.00;;;;;;5033941;28;20060;-84
2022/06/17 01:31:10;;;;;;;1.40;0.40;;;22.20;97.30;;;;;;5012261;28;20488;-84
2022/06/17 01:33:39;;;;;;;1.65;0.57;;;22.20;97.10;;;;;;5038053;28;20040;-84
2022/06/17 01:36:13;;;;;;;0.20;0.20;;;22.10;97.40;;;;;;5039121;28;20504;-84
2022/06/17 01:38:41;;;;;;;0.50;0.50;;;22.10;98.10;;;;;;5032156;28;20627;-83
2022/06/17 01:41:09;;;;;;;0.50;0.45;;;21.90;98.80;;;;;;5038012;28;20029;-83
2022/06/17 01:43:52;;;;;;;0.40;0.40;;;21.80;99.50;;;;;;5038171;28;20512;-86
2022/06/17 01:46:40;;;;;;;0.25;0.25;;;21.60;99.90;;;;;;5038032;28;20048;-88
2022/06/17 01:49:08;;;;;;;0.10;0.10;;;21.70;99.90;;;;;;5019226;28;20045;-88
2022/06/17 01:51:37;;;;;;;0.13;0.13;;;21.60;99.90;;;;;;5031929;28;20033;-79
2022/06/17 01:54:07;;;;;;;1.35;0.32;;;21.60;99.90;;;;;;5033472;28;20151;-79
2022/06/17 01:56:35;;;;;;;0.38;0.38;;;21.60;99.80;;;;;;5034056;28;20519;-79
2022/06/17 01:59:08;;;;;;;0.32;0.30;;;21.60;99.90;;;;;;5038411;28;20787;-78
2022/06/17 02:01:36;;;;;;;0.60;0.20;;;21.50;99.90;;;;;;5039376;28;20595;-78
2022/06/17 02:04:07;;;;;;;0.63;0.63;;;21.40;99.90;;;;;;5038644;28;20037;-78
2022/06/17 02:06:43;;;;;;;0.90;0.28;;;21.30;99.90;;;;;;5031888;28;20424;-78
2022/06/17 02:09:08;;;;;;;4.28;1.75;;;21.30;99.90;;;;;;5022343;28;20044;-77
2022/06/17 02:11:34;;;;;;;0.60;0.50;;;21.20;99.90;;;;;;5032181;28;20028;-77
2022/06/17 02:14:06;;;;;;;0.10;0.10;;;21.20;99.90;;;;;;5038150;28;20081;-78
2022/06/17 02:16:40;;;;;;;0.85;0.63;;;21.10;99.90;;;;;;5034932;28;20036;-77
2022/06/17 02:19:06;;;;;;;0.10;0.10;;;21.10;99.90;;;;;;5036973;28;20508;-77
2022/06/17 02:21:44;;;;;;;1.08;0.77;;;21.20;99.90;;;;;;5038588;28;20052;-77
2022/06/17 02:24:10;;;;;;;0.20;0.20;;;21.10;99.90;;;;;;5034005;28;20074;-77
2022/06/17 02:26:38;;;;;;;0.32;0.32;;;21.00;99.90;;;;;;5033291;28;20037;-78
2022/06/17 02:29:09;;;;;;;0.47;0.25;;;20.80;99.90;;;;;;5033593;28;20629;-78
2022/06/17 02:31:35;;;;;;;0.20;0.20;;;20.70;99.90;;;;;;5037589;28;20531;-77
2022/06/17 02:34:06;;;;;;;1.23;0.45;;;20.70;99.90;;;;;;5037115;28;20052;-75
2022/06/17 02:36:38;;;;;;;0.30;0.28;;;20.60;99.90;;;;;;5035761;28;20070;-77
2022/06/17 02:39:05;;;;;;;0.10;0.10;;;20.50;99.90;;;;;;5037054;28;20033;-77
2022/06/17 02:41:31;;;;;;;0.70;0.65;;;20.50;99.90;;;;;;5035629;28;20801;-77
2022/06/17 02:44:06;;;;;;;0.10;0.10;;;20.50;99.90;;;;;;5032310;28;20037;-78
2022/06/17 02:46:40;;;;;;;0.30;0.30;;;20.50;99.90;;;;;;5030832;28;20033;-78
2022/06/17 02:49:16;;;;;;;1.60;1.02;;;20.50;99.90;;;;;;5031389;28;20041;-78
2022/06/17 02:51:43;;;;;;;;;;;20.40;99.90;;;;;;5034529;28;20082;-77
2022/06/17 02:54:16;;;;;;;0.40;0.40;;;20.50;99.90;;;;;;5014476;28;20491;-77
2022/06/17 02:56:47;;;;;;;0.17;0.17;;;20.50;99.90;;;;;;5030188;28;20033;-77
2022/06/17 02:59:26;;;;;;;0.35;0.35;;;20.40;99.90;;;;;;5034560;28;20766;-77
2022/06/17 03:01:55;;;;;;;0.57;0.35;;;20.40;99.90;;;;;;5037949;28;20037;-77
2022/06/17 03:04:25;;;;;;;0.30;0.30;;;20.40;99.90;;;;;;5030581;28;20108;-77
2022/06/17 03:06:52;;;;;;;0.32;0.32;;;20.40;99.90;;;;;;5029817;28;20040;-78
2022/06/17 03:09:32;;;;;;;1.23;1.00;;;20.30;99.90;;;;;;5034096;28;20981;-77
2022/06/17 03:12:04;;;;;;;0.20;0.20;;;20.30;99.90;;;;;;5034968;28;20095;-77
2022/06/17 03:14:35;;;;;;;1.10;0.32;;;20.20;99.90;;;;;;5033762;28;20315;-77
2022/06/17 03:17:07;;;;;;;0.45;0.45;;;20.10;99.90;;;;;;5034276;28;20102;-77
2022/06/17 03:19:36;;;;;;;0.32;0.28;;;20.00;99.90;;;;;;5029468;28;20056;-78
2022/06/17 03:22:04;;;;;;;3.10;1.60;;;20.10;99.90;;;;;;5033358;28;20074;-78
2022/06/17 03:24:57;;;;;;;0.30;0.30;;;20.00;99.90;;;;;;5034207;28;20033;-79
2022/06/17 03:27:47;;;;;;;0.28;0.28;;;20.00;99.90;;;;;;4936303;28;20418;-78
2022/06/17 03:30:19;;;;;;;1.30;0.43;;;19.90;99.90;;;;;;4951717;28;20625;-78
2022/06/17 03:32:49;;;;;;;0.30;0.30;;;19.90;99.90;;;;;;4950389;28;20050;-78
2022/06/17 03:35:22;;;;;;;0.45;0.40;;;19.90;99.90;;;;;;4950469;28;20075;-79
2022/06/17 03:38:00;;;;;;;1.38;0.82;;;19.80;99.90;;;;;;4948653;28;20293;-78
2022/06/17 03:40:31;;;;;;;0.10;0.10;;;19.70;99.90;;;;;;4934053;28;20081;-78
2022/06/17 03:43:23;;;;;;;0.55;0.55;;;19.60;99.90;;;;;;4953286;28;20047;-78
2022/06/17 03:45:55;;;;;;;0.10;0.10;;;19.70;99.90;;;;;;4943833;28;20609;-79
2022/06/17 03:48:27;;;;;;;25.05;1.75;;;19.60;99.90;;;;;;4948922;28;20062;-78
2022/06/17 03:50:53;;;;;;;0.30;0.30;;;19.60;99.90;;;;;;4948725;28;20423;-87
2022/06/17 03:53:29;;;;;;;0.30;0.30;;;19.60;99.90;;;;;;4951131;28;20866;-89
2022/06/17 03:55:58;;;;;;;0.43;0.43;;;19.60;99.90;;;;;;4955645;28;20043;-90
2022/06/17 03:58:25;;;;;;;0.63;0.63;;;19.50;99.90;;;;;;4951975;28;20040;-88
2022/06/17 04:00:55;;;;;;;1.23;0.52;;;19.40;99.90;;;;;;4952025;28;21038;-86
2022/06/17 04:03:25;;;;;;;0.05;0.03;;;19.40;99.90;;;;;;4960124;28;20042;-87
2022/06/17 04:06:13;;;;;;;0.10;0.10;;;19.40;99.90;;;;;;5032836;28;20111;-85
2022/06/17 04:08:57;;;;;;;1.45;0.70;;;19.40;99.90;;;;;;5034798;28;20037;-76
2022/06/17 04:11:27;;;;;;;0.30;0.30;;;19.30;99.90;;;;;;5034109;28;20062;-76
2022/06/17 04:13:59;;;;;;;0.30;0.30;;;19.20;99.90;;;;;;5033310;28;20044;-76
2022/06/17 04:16:56;;;;;;;0.10;0.10;;;19.20;99.90;;;;;;5028170;28;22113;-76
2022/06/17 04:19:26;;;;;;;4.28;1.05;;;19.20;99.90;;;;;;4916247;29;20044;-75
2022/06/17 04:21:57;;;;;;;0.47;0.47;;;19.20;99.90;;;;;;4914838;29;20078;-75
2022/06/17 04:24:25;;;;;;;0.38;0.35;;;19.20;99.90;;;;;;4912243;29;20039;-77
2022/06/17 04:26:55;;;;;;;0.95;0.63;;;19.20;99.90;;;;;;4913008;29;20039;-75
2022/06/17 04:29:40;;;;;;;0.35;0.32;;;19.30;99.90;;;;;;4922524;29;20031;-75
2022/06/17 04:32:19;;;;;;;0.80;0.68;;;19.40;99.90;;;;;;4920371;29;20042;-75
2022/06/17 04:34:45;;;;;;;0.60;0.60;;;19.30;99.90;;;;;;4920475;29;20688;-76
2022/06/17 04:37:19;;;;;;;0.25;0.25;;;19.50;99.90;;;;;;4926709;29;20114;-74
2022/06/17 04:39:56;;;;;;;0.30;0.30;;;19.70;99.90;;;;;;4927425;29;20043;-74
2022/06/17 04:42:44;;;;;;;4.57;0.35;;;19.80;99.90;;;;;;4923273;29;20547;-75
2022/06/17 04:45:22;;;;;;;0.30;0.30;;;20.00;99.90;;;;;;4918952;29;20459;-74
2022/06/17 04:47:48;;;;;;;0.65;0.28;;;20.10;99.90;;;;;;4919971;29;20031;-74
2022/06/17 04:50:17;;;;;;;0.33;0.33;;;20.10;99.90;;;;;;4930992;29;20043;-74
2022/06/17 04:52:46;;;;;;;0.73;0.60;;;20.20;99.90;;;;;;4922907;29;20228;-74
2022/06/17 04:55:20;;;;;;;0.13;0.13;;;20.30;99.90;;;;;;4941718;28;20082;-75
2022/06/17 04:57:47;;;;;;;5.15;1.45;;;20.40;99.90;;;;;;5039180;28;20058;-75
2022/06/17 05:00:21;;;;;;;0.30;0.30;;;20.50;99.90;;;;;;5024512;28;20067;-75
2022/06/17 05:02:48;;;;;;;0.82;0.68;;;20.60;99.90;;;;;;5039808;28;20060;-75
2022/06/17 05:05:23;;;;;;;0.47;0.47;;;20.80;99.90;;;;;;5039041;28;20052;-75
2022/06/17 05:07:52;;;;;;;0.20;0.20;;;20.90;99.90;;;;;;5033389;28;20037;-73
2022/06/17 05:10:25;;;;;;;0.43;0.43;;;21.00;99.90;;;;;;5039160;28;20033;-75
2022/06/17 05:13:01;;;;;;;0.73;0.43;;;21.20;99.90;;;;;;5018097;28;20495;-74
2022/06/17 05:15:28;;;;;;;0.52;0.50;;;21.40;99.90;;;;;;5031119;28;20067;-74
2022/06/17 05:17:55;;;;;;;0.38;0.28;;;21.50;99.90;;;;;;5033605;28;20142;-75
2022/06/17 05:20:22;;;;;;;2.05;0.77;;;21.50;99.60;;;;;;5019390;28;20025;-74
2022/06/17 05:22:59;;;;;;;0.75;0.75;;;21.90;98.40;;;;;;5037398;28;20584;-74
2022/06/17 05:25:27;;;;;;;;;;;22.20;98.10;;;;;;5030987;28;20032;-75
2022/06/17 05:27:53;;;;;;;0.20;0.20;;;22.50;97.30;;;;;;5035738;28;19917;-76
2022/06/17 05:30:19;;;;;;;0.32;0.32;;;22.70;96.10;;;;;;5031819;28;20068;-75
2022/06/17 05:32:51;;;;;;;0.22;0.22;;;22.90;95.10;;;;;;5017386;28;20041;-75
2022/06/17 05:35:18;;;;;;;0.55;0.55;;;23.20;94.80;;;;;;5032290;28;20129;-75
2022/06/17 05:37:44;;;;;;;0.73;0.43;;;23.30;94.60;;;;;;5029964;28;20024;-75
2022/06/17 05:40:10;;;;;;;0.08;0.08;;;23.40;95.50;;;;;;5033264;28;20123;-78
2022/06/17 05:42:36;;;;;;;;;;;23.40;94.80;;;;;;5033609;28;20816;-77
2022/06/17 05:45:02;;;;;;;;;;;23.70;93.50;;;;;;5033819;28;20452;-77
2022/06/17 05:47:28;;;;;;;0.30;0.30;;;24.00;92.40;;;;;;5036203;28;20386;-76
2022/06/17 05:49:53;;;;;;;0.77;0.60;;;24.20;92.30;;;;;;5036248;28;20053;-77
2022/06/17 05:52:19;;;;;;;31.87;1.00;;;24.60;91.30;;;;;;5043109;28;20516;-74
2022/06/17 05:54:46;;;;;;;1.25;0.47;;;25.20;90.10;;;;;;5039462;28;20489;-83
2022/06/17 05:57:12;;;;;;;1.27;0.47;;;25.90;87.10;;;;;;5034325;28;20041;-83
2022/06/17 05:59:38;;;;;;;0.20;0.20;;;26.20;85.70;;;;;;5016681;28;20036;-83
2022/06/17 06:02:04;;;;;;;1.70;1.17;;;26.70;81.70;;;;;;5033266;28;20473;-83
2022/06/17 06:04:31;;;;;;;0.55;0.45;;;26.80;80.90;;;;;;5035112;28;20036;-81
2022/06/17 06:06:57;;;;;;;1.33;0.30;;;27.10;79.20;;;;;;5036765;28;20033;-80
2022/06/17 06:09:23;;;;;;;;;;;27.00;77.90;;;;;;5030110;28;20109;-81
2022/06/17 06:11:48;;;;;;;0.30;0.25;;;27.30;77.90;;;;;;5035692;28;20001;-82
2022/06/17 06:14:14;;;;;;;0.17;0.10;;;27.70;76.80;;;;;;5036179;28;20029;-80
2022/06/17 06:16:40;;;;;;;0.57;0.32;;;28.40;76.40;;;;;;5035708;28;20534;-80
2022/06/17 06:19:06;;;;;;;0.00;0.00;;;28.50;73.90;;;;;;5029493;28;20030;-81
2022/06/17 06:21:32;;;;;;;0.30;0.30;;;28.60;73.10;;;;;;5028760;28;20116;-80
2022/06/17 06:23:57;;;;;;;0.35;0.30;;;28.90;73.70;;;;;;5028558;28;20037;-81
2022/06/17 06:26:24;;;;;;;0.75;0.75;;;29.20;70.40;;;;;;5029900;28;20090;-81
2022/06/17 06:28:49;;;;;;;;;;;29.80;70.50;;;;;;5025866;28;20428;-81
2022/06/17 06:31:44;;;;;;;0.55;0.30;;;29.80;67.10;;;;;;5038348;28;19919;-81
2022/06/17 06:34:10;;;;;;;0.20;0.20;;;30.30;67.60;;;;;;5013183;28;20060;-81
2022/06/17 06:36:36;;;;;;;0.52;0.15;;;30.70;67.90;;;;;;5041082;28;20041;-82
2022/06/17 06:39:02;;;;;;;0.40;0.40;;;30.70;66.10;;;;;;5042263;28;20032;-83
2022/06/17 06:41:28;;;;;;;;;;;30.40;65.10;;;;;;5042352;28;20127;-88
2022/06/17 06:43:54;;;;;;;0.63;0.43;;;30.80;63.50;;;;;;5024053;28;20053;-85
2022/06/17 06:46:22;;;;;;;;;;;30.70;63.40;;;;;;5044877;28;20104;-85
2022/06/17 06:48:47;;;;;;;0.40;0.20;;;30.50;63.80;;;;;;5042238;28;19939;-85
2022/06/17 06:51:13;;;;;;;;;;;30.20;64.60;;;;;;5042459;28;20666;-85
2022/06/17 06:53:39;;;;;;;0.75;0.55;;;30.40;65.80;;;;;;5041922;28;19927;-86
2022/06/17 06:56:07;;;;;;;;;;;30.40;64.10;;;;;;5024699;28;20408;-85
2022/06/17 06:58:33;;;;;;;2.65;0.20;;;30.70;64.50;;;;;;5043988;28;19962;-86
2022/06/17 07:00:59;;;;;;;;;;;30.00;63.70;;;;;;5043367;28;20033;-85
2022/06/17 07:03:26;;;;;;;0.60;0.28;;;30.90;63.70;;;;;;5041301;28;19923;-85
2022/06/17 07:05:58;;;;;;;0.05;0.05;;;30.90;62.50;;;;;;5041601;28;20033;-85
2022/06/17 07:08:26;;;;;;;0.20;0.20;;;30.10;64.30;;;;;;5041751;28;20033;-87
2022/06/17 07:10:54;;;;;;;0.40;0.30;;;30.00;65.10;;;;;;5036279;28;20025;-85
2022/06/17 07:13:22;;;;;;;0.03;0.03;;;30.70;61.90;;;;;;5040511;28;20021;-86
2022/06/17 07:15:51;;;;;;;0.32;0.25;;;30.30;65.50;;;;;;5041604;28;20100;-86
2022/06/17 07:18:22;;;;;;;2.08;1.23;;;31.40;59.80;;;;;;5041301;28;20716;-85
2022/06/17 07:20:52;;;;;;;0.10;0.10;;;31.20;59.60;;;;;;5041367;28;20031;-86
2022/06/17 07:23:21;;;;;;;0.00;0.00;;;31.90;59.40;;;;;;5043552;28;20127;-85
2022/06/17 07:25:48;;;;;;;0.22;0.20;;;32.40;59.70;;;;;;5041866;28;20125;-84
2022/06/17 07:28:19;;;;;;;0.47;0.45;;;33.00;58.30;;;;;;5043426;28;20087;-85
2022/06/17 07:30:47;;;;;;;0.00;0.00;;;33.50;58.90;;;;;;5040657;28;20048;-85
2022/06/17 07:33:14;;;;;;;5.38;1.00;;;33.50;56.90;;;;;;5040554;28;20040;-85
2022/06/17 07:35:41;;;;;;;0.10;0.10;;;33.40;57.10;;;;;;5040918;28;20108;-85
2022/06/17 07:40:57;;;;;;;0.38;0.38;;;33.60;56.80;;;;;;5036483;28;20123;-86
2022/06/17 07:43:23;;;;;;;0.52;0.52;;;33.30;55.60;;;;;;5025994;28;20029;-85
2022/06/17 07:45:49;;;;;;;0.30;0.30;;;33.60;55.80;;;;;;5024525;28;20816;-85
2022/06/17 07:48:15;;;;;;;0.00;0.00;;;34.40;54.50;;;;;;5039947;28;20457;-86
2022/06/17 07:50:43;;;;;;;0.00;0.00;;;34.30;57.90;;;;;;5039951;28;20119;-85
2022/06/17 07:53:09;;;;;;;0.00;0.00;;;34.80;54.50;;;;;;5041143;28;20528;-85
2022/06/17 07:55:36;;;;;;;0.10;0.10;;;34.70;54.20;;;;;;5043444;28;20033;-86
2022/06/17 07:58:03;;;;;;;0.00;0.00;;;34.80;53.10;;;;;;5044108;28;20033;-86
2022/06/17 08:00:32;;;;;;;0.00;0.00;;;35.30;52.20;;;;;;5037595;28;20524;-86
2022/06/17 08:02:58;;;;;;;0.30;0.30;;;35.00;51.80;;;;;;5035006;28;20049;-85
2022/06/17 08:05:23;;;;;;;0.10;0.10;;;34.60;51.10;;;;;;5040740;28;20526;-85
2022/06/17 08:07:50;;;;;;;1.00;0.30;;;35.40;52.60;;;;;;5041295;28;20056;-86
2022/06/17 08:10:20;;;;;;;0.22;0.22;;;35.50;51.80;;;;;;5044149;28;20021;-86
2022/06/17 08:12:46;;;;;;;0.32;0.32;;;35.50;51.50;;;;;;5040551;28;20083;-86
2022/06/17 08:15:12;;;;;;;0.28;0.15;;;36.50;53.20;;;;;;5040621;28;20029;-86
2022/06/17 08:17:39;;;;;;;0.50;0.47;;;36.50;50.90;;;;;;5025290;28;20033;-85
2022/06/17 08:20:18;;;;;;;0.52;0.38;;;36.00;52.40;;;;;;5040951;28;20021;-86
2022/06/17 08:22:44;;;;;;;20.17;0.32;;;35.70;54.30;;;;;;5041987;28;20114;-86
2022/06/17 08:25:11;;;;;;;0.45;0.13;;;35.20;53.00;;;;;;5043172;28;20835;-87
2022/06/17 08:27:44;;;;;;;0.30;0.20;;;34.10;55.50;;;;;;5008953;28;20036;-85
2022/06/17 08:30:11;;;;;;;0.20;0.20;;;34.30;58.00;;;;;;5042909;28;20040;-86
2022/06/17 08:32:46;;;;;;;0.10;0.10;;;33.50;58.50;;;;;;5025270;28;20063;-85
2022/06/17 08:35:14;;;;;;;2.13;0.60;;;33.40;59.00;;;;;;5040233;28;20036;-86
2022/06/17 08:37:41;;;;;;;0.00;0.00;;;33.50;59.70;;;;;;5042158;28;20041;-86
2022/06/17 08:40:38;;;;;;;0.47;0.40;;;33.80;56.60;;;;;;5042307;28;20025;-86
2022/06/17 08:43:28;;;;;;;0.80;0.43;;;34.60;56.60;;;;;;5042129;28;20637;-86
2022/06/17 08:45:53;;;;;;;0.10;0.10;;;34.50;56.10;;;;;;5032457;28;20037;-86
2022/06/17 08:48:45;;;;;;;2.80;0.45;;;35.40;55.00;;;;;;5020924;28;20519;-86
2022/06/17 08:51:18;;;;;;;0.10;0.10;;;36.10;50.40;;;;;;5039814;28;20060;-85
2022/06/17 08:54:22;;;;;;;0.20;0.20;;;37.10;51.60;;;;;;5025003;28;20696;-86
2022/06/17 08:57:03;;;;;;;0.20;0.20;;;36.90;49.80;;;;;;5039590;28;20047;-86
2022/06/17 08:59:45;;;;;;;0.35;0.30;;;37.00;49.30;;;;;;5039833;28;20024;-86
2022/06/17 09:02:40;;;;;;;0.20;0.20;;;36.70;50.40;;;;;;5023708;28;20576;-86
2022/06/17 09:05:17;;;;;;;;;;;36.90;51.60;;;;;;5037189;28;20036;-87
2022/06/17 09:07:49;;;;;;;1.65;0.40;;;37.30;51.30;;;;;;5040572;28;19963;-86
2022/06/17 09:10:27;;;;;;;0.10;0.10;;;37.00;50.50;;;;;;5045510;28;20167;-86
2022/06/17 09:12:53;;;;;;;0.10;0.10;;;37.20;51.80;;;;;;5044451;28;20271;-86
2022/06/17 09:15:24;;;;;;;0.47;0.47;;;37.60;50.80;;;;;;5043904;28;20029;-86
2022/06/17 09:17:58;;;;;;;0.40;0.20;;;37.40;50.10;;;;;;5043842;28;20037;-86
2022/06/17 09:20:37;;;;;;;0.25;0.22;;;38.10;50.90;;;;;;5043583;28;20017;-86
2022/06/17 09:23:05;;;;;;;0.00;0.00;;;37.80;49.40;;;;;;5042107;28;20117;-85
2022/06/17 09:25:58;;;;;;;0.60;0.55;;;36.40;51.10;;;;;;5045902;28;20102;-86
2022/06/17 09:28:38;;;;;;;0.32;0.32;;;36.40;53.30;;;;;;5041201;28;20033;-86
2022/06/17 09:31:17;;;;;;;0.20;0.20;;;36.30;53.80;;;;;;5045253;28;20036;-86
2022/06/17 09:34:00;;;;;;;0.20;0.20;;;36.50;53.50;;;;;;5028826;28;20024;-86
2022/06/17 09:36:34;;;;;;;0.10;0.10;;;37.30;52.50;;;;;;5043771;28;20041;-86
2022/06/17 09:39:23;;;;;;;0.43;0.40;;;37.00;52.50;;;;;;5043887;28;20207;-86
2022/06/17 09:41:59;;;;;;;0.20;0.20;;;36.60;54.50;;;;;;5028644;28;20393;-85
2022/06/17 09:44:35;;;;;;;0.15;0.15;;;36.40;52.70;;;;;;5043468;28;20020;-86
2022/06/17 09:47:11;;;;;;;1.42;0.40;;;37.30;51.90;;;;;;5039254;28;20036;-86
2022/06/17 09:49:51;;;;;;;0.20;0.20;;;37.00;52.50;;;;;;5045579;28;20045;-86
2022/06/17 09:52:20;;;;;;;0.22;0.22;;;37.60;50.80;;;;;;5046680;28;20033;-85
2022/06/17 09:55:01;;;;;;;0.68;0.50;;;37.50;49.40;;;;;;5041909;28;20017;-86
2022/06/17 09:57:42;;;;;;;0.30;0.30;;;38.20;52.30;;;;;;5043352;28;20060;-86
2022/06/17 10:00:16;;;;;;;0.85;0.68;;;38.00;48.30;;;;;;5042929;28;20170;-85
2022/06/17 10:02:52;;;;;;;0.20;0.20;;;38.30;47.50;;;;;;5042718;28;20037;-86
2022/06/17 10:05:56;;;;;;;0.10;0.10;;;38.90;46.90;;;;;;5045005;28;20020;-86
2022/06/17 10:08:32;;;;;;;0.20;0.20;;;39.10;48.10;;;;;;4940880;29;20120;-86
2022/06/17 10:11:12;;;;;;;0.28;0.22;;;39.30;46.70;;;;;;4927667;29;20528;-86
2022/06/17 10:14:02;;;;;;;0.38;0.10;;;38.90;48.20;;;;;;4943781;28;20051;-86
2022/06/17 10:19:56;;;;;;;0.20;0.10;;;39.90;42.70;;;;;;4942230;28;20050;-86
2022/06/17 10:22:48;;;;;;;0.13;0.13;;;40.90;42.60;;;;;;4945163;28;20066;-86
2022/06/17 10:25:22;;;;;;;0.13;0.08;;;40.60;42.60;;;;;;4944453;28;20113;-86
2022/06/17 10:28:09;;;;;;;0.80;0.10;;;40.70;41.50;;;;;;4934599;28;20507;-86
2022/06/17 10:30:56;;;;;;;3.63;0.65;;;39.80;38.50;;;;;;4941594;28;20035;-86
2022/06/17 10:33:23;;;;;;;0.13;0.10;;;39.50;40.00;;;;;;4941831;29;20047;-85
2022/06/17 10:35:49;;;;;;;0.20;0.10;;;39.60;39.60;;;;;;4941908;29;20067;-85
2022/06/17 10:38:28;;;;;;;0.00;0.00;;;40.00;39.50;;;;;;4953270;28;20035;-85
2022/06/17 10:40:54;;;;;;;0.10;0.10;;;39.00;41.00;;;;;;5037042;28;20491;-86
2022/06/17 10:43:22;;;;;;;0.90;0.82;;;37.20;41.90;;;;;;5045245;28;20052;-86
2022/06/17 10:45:49;;;;;;;12.73;1.33;;;35.90;43.40;;;;;;5042460;28;20029;-85
2022/06/17 10:48:18;;;;;;;0.10;0.10;;;35.90;46.50;;;;;;5041792;28;20056;-86
2022/06/17 10:50:44;;;;;;;0.20;0.20;;;35.30;45.80;;;;;;5041835;28;20048;-85
2022/06/17 10:53:25;;;;;;;0.13;0.13;;;35.30;52.70;;;;;;5044355;28;20028;-85
2022/06/17 10:55:55;;;;;;;1.45;0.45;;;35.00;51.40;;;;;;5043176;28;20037;-85
2022/06/17 10:58:29;;;;;;;0.03;0.03;;;34.80;49.70;;;;;;5041820;28;20562;-86
2022/06/17 11:01:01;;;;;;;2.92;1.15;;;34.40;46.80;;;;;;5042775;28;20036;-85
2022/06/17 11:03:35;;;;;;;0.43;0.43;;;34.20;47.20;;;;;;5031611;28;20416;-86
2022/06/17 11:06:10;;;;;;;0.10;0.10;;;34.00;43.90;;;;;;5037164;28;20531;-86
2022/06/17 11:08:52;;;;;;;0.08;0.08;;;33.60;42.30;;;;;;5038661;28;20802;-86
2022/06/17 11:12:03;;;;;;;0.63;0.45;;;33.70;48.10;;;;;;5011538;28;20113;-87
2022/06/17 11:14:37;;;;;;;0.10;0.10;;;34.10;50.40;;;;;;5030800;28;20049;-87
2022/06/17 11:17:28;;;;;;;0.10;0.10;;;34.10;47.90;;;;;;5034617;28;20103;-87
2022/06/17 11:19:57;;;;;;;0.80;0.43;;;33.80;46.50;;;;;;5035718;28;20183;-86
2022/06/17 11:22:25;;;;;;;2.60;0.57;;;33.80;44.60;;;;;;5039466;28;20045;-87
2022/06/17 11:24:56;;;;;;;0.00;0.00;;;33.70;44.20;;;;;;5037648;28;20094;-86
2022/06/17 11:27:41;;;;;;;0.00;0.00;;;33.80;50.90;;;;;;5035204;28;20571;-86
2022/06/17 11:30:31;;;;;;;0.10;0.10;;;33.70;48.80;;;;;;5031759;28;20029;-86
2022/06/17 11:32:59;;;;;;;0.08;0.08;;;33.40;45.80;;;;;;5036073;28;20418;-86
2022/06/17 11:35:37;;;;;;;0.00;0.00;;;33.40;50.90;;;;;;5038943;28;20920;-86
2022/06/17 11:38:14;;;;;;;0.15;0.15;;;33.40;47.30;;;;;;5041367;28;20032;-86
2022/06/17 11:40:52;;;;;;;0.10;0.10;;;33.30;46.80;;;;;;5043448;28;20029;-87
2022/06/17 11:43:36;;;;;;;0.08;0.08;;;33.00;47.90;;;;;;5044500;28;20930;-86
2022/06/17 11:46:08;;;;;;;0.77;0.57;;;33.00;49.40;;;;;;5040436;28;20750;-87
2022/06/17 11:48:42;;;;;;;0.00;0.00;;;33.10;49.60;;;;;;5024852;28;20520;-87
2022/06/17 11:51:15;;;;;;;0.10;0.10;;;33.30;46.00;;;;;;5041345;28;20048;-87
2022/06/17 11:53:48;;;;;;;0.00;0.00;;;33.00;43.00;;;;;;5041458;28;20729;-86
2022/06/17 11:56:34;;;;;;;0.95;0.50;;;33.10;47.70;;;;;;5041779;28;20094;-86
2022/06/17 11:59:25;;;;;;;0.00;0.00;;;33.00;44.20;;;;;;5038810;28;20044;-87
2022/06/17 12:01:54;;;;;;;0.00;0.00;;;33.10;45.70;;;;;;5037058;28;20060;-87
2022/06/17 12:04:44;;;;;;;0.00;0.00;;;33.00;42.60;;;;;;5037622;28;20025;-87
2022/06/17 12:07:38;;;;;;;0.30;0.30;;;32.90;43.40;;;;;;5038710;28;20043;-86
2022/06/17 12:10:09;;;;;;;0.30;0.30;;;33.00;44.30;;;;;;5040479;28;20029;-87
2022/06/17 12:12:36;;;;;;;0.10;0.10;;;33.00;48.00;;;;;;5043394;28;20425;-87
2022/06/17 12:15:12;;;;;;;0.00;0.00;;;32.90;41.90;;;;;;5041858;28;20043;-86
2022/06/17 12:17:39;;;;;;;0.00;0.00;;;32.90;39.90;;;;;;5032213;28;20025;-86
2022/06/17 12:20:43;;;;;;;0.00;0.00;;;33.00;44.50;;;;;;5040764;28;20033;-86
2022/06/17 12:23:15;;;;;;;0.10;0.10;;;33.00;42.60;;;;;;5035532;28;20069;-87
2022/06/17 12:25:56;;;;;;;0.00;0.00;;;32.90;43.60;;;;;;5031596;28;20029;-87
2022/06/17 12:28:41;;;;;;;0.25;0.15;;;32.80;44.90;;;;;;5040943;28;20048;-87
2022/06/17 12:31:23;;;;;;;0.10;0.10;;;32.80;44.80;;;;;;5042460;28;20021;-87
2022/06/17 12:34:08;;;;;;;0.15;0.08;;;32.80;47.40;;;;;;5024445;28;20032;-86
2022/06/17 12:36:53;;;;;;;0.28;0.28;;;33.00;50.60;;;;;;5036545;28;20448;-86
2022/06/17 12:39:32;;;;;;;0.00;0.00;;;32.90;48.00;;;;;;5025775;28;20072;-86
2022/06/17 12:42:35;;;;;;;0.03;0.03;;;32.90;44.20;;;;;;5042134;28;20880;-85
2022/06/17 12:45:28;;;;;;;0.15;0.15;;;32.80;43.10;;;;;;5033146;28;20143;-86
2022/06/17 12:48:21;;;;;;;0.00;0.00;;;32.80;42.90;;;;;;5035948;28;20109;-85
2022/06/17 12:54:08;;;;;;;7.00;0.35;;;32.70;47.10;;;;;;5044196;28;20036;-85
2022/06/17 12:57:05;;;;;;;0.00;0.00;;;32.60;48.20;;;;;;5032794;28;20067;-84
2022/06/17 12:59:55;;;;;;;0.00;0.00;;;32.70;48.30;;;;;;5043924;28;20040;-85
2022/06/17 13:02:29;;;;;;;0.17;0.05;;;32.80;43.80;;;;;;5039468;28;20127;-83
2022/06/17 13:05:17;;;;;;;0.88;0.57;;;32.70;44.90;;;;;;5029413;28;20486;-83
2022/06/17 13:07:59;;;;;;;0.00;0.00;;;32.70;44.10;;;;;;5032108;28;20056;-83
2022/06/17 13:10:44;;;;;;;1.10;0.50;;;32.70;46.10;;;;;;5034255;28;20095;-83
2022/06/17 13:13:21;;;;;;;0.32;0.20;;;32.70;44.90;;;;;;5040515;28;20017;-83
2022/06/17 13:15:55;;;;;;;0.70;0.40;;;32.50;44.70;;;;;;5032493;28;20484;-83
2022/06/17 13:18:25;;;;;;;0.03;0.03;;;32.50;44.50;;;;;;5031811;28;20112;-84
2022/06/17 13:21:00;;;;;;;0.00;0.00;;;32.60;50.90;;;;;;5030052;28;20040;-84
2022/06/17 13:23:43;;;;;;;0.43;0.43;;;32.60;48.70;;;;;;5042718;28;20124;-83
2022/06/17 13:26:22;;;;;;;0.00;0.00;;;32.50;48.80;;;;;;5040259;28;20524;-82
2022/06/17 13:29:12;;;;;;;0.10;0.10;;;32.50;47.70;;;;;;5044320;28;20045;-83
2022/06/17 13:31:53;;;;;;;0.43;0.43;;;32.60;54.50;;;;;;5043509;28;20496;-81
2022/06/17 13:34:25;;;;;;;0.10;0.10;;;32.70;50.50;;;;;;5029352;28;20031;-81
2022/06/17 13:36:58;;;;;;;0.00;0.00;;;32.50;50.10;;;;;;5030786;28;20048;-82